Bandon, OR

1:41 AM PDT on August 31, 2014 (GMT -0700)
North Bend | Change Station
CLOSE
Current Station
Airport
Location: North Bend,
Elevation: 16 ft
Nearby Weather Stations

Elev 16 ft 43.42 °N, 124.25 °W | Updated 6 minutes ago

Overcast
Overcast
57 °F
Feels Like 57 °F
N
5
Wind Variable Wind from SSE

Today
High -- | Low -- °F
--% Chance of Precip.
Yesterday
High -- | Low -- °F
Precip. -- in
6:40 AM 7:54 PM
Waxing Crescent, 29% visible
Pressure 30.07 in
Visibility 0.5 miles
Clouds Overcast 200 ft
Dew Point 57 °F
Humidity 100%
Rainfall 0.00 in
Snow Depth Not available.
UV 0 out of 12
Pollen 3.00 out of 12
Air Quality Not available.
Flu Activity Not available.
METAR KOTH 310835Z 15004KT 1/2SM OVC002 14/14 A3007 RMK AO1

More Conditions Fewer Conditions

Pressure 30.07 in
Visibility 0.5 miles
Clouds Overcast 200 ft
Dew Point 57 °F
Humidity 100%
Rainfall 0.00 in
Snow Depth Not available.
UV 0 out of 12
Pollen 3.00 out of 12
Air Quality Not available.
Flu Activity Not available.
METAR KOTH 310835Z 15004KT 1/2SM OVC002 14/14 A3007 RMK AO1

More Conditions Fewer Conditions

10-Day Weather Forecast

Almanac

Astronomy

Aug. 31, 2014 Rise Set
Actual Time 6:40 AM PDT 7:54 PM PDT
Civil Twilight 6:11 AM PDT 8:23 PM PDT
Nautical Twilight 5:36 AM PDT 8:58 PM PDT
Astronomical Twilight 4:59 AM PDT 9:35 PM PDT
Moon 12:43 PM PDT 11:03 PM PDT
Length of Visible Light 14h 11m
Length of Day
13h 13m
Tomorrow will be 2m 49s shorter.
Waxing Crescent, 29% of the Moon is Illuminated
Today
Waxing Crescent
Sep 2
First Quarter
Sep 8
Full
Sep 15
Last Quarter
Sep 24
New

Today's Extremes

State Highs State Lows

Community

WunderPhotos

Upload Photos

1,748,826 photos uploaded!

Nearby

Snow Depth

Station Depth Elevation
Bigelow Camp 1 in 5120 ft
Big Red Mountain 0 in 6250 ft
Fish Lake 0 in 4665 ft
Annie Springs 0 in 6020 ft
Diamond Lake 1 in 5315 ft

Earthquake Activity

City Distance Mag. Time & Date
No recent earthquake activity has been reported nearby.
Minimum magnitude displayed is 2.5.

Coastal Water Temperatures

Place Temperature
Port Orford, OR 55.0 °F
Charleston, OR 57.0 °F
South Beach, OR 55.9 °F

Nearby Weather Stations